Time;durP1;ratioP1;P1;durP2;ratioP2;P2;SDS_P1;SDS_P2;PMS_P1;PMS_P2;Temp;Humidity;BMP_temperature;BMP_pressure;BME280_temperature;BME280_humidity;BME280_pressure;Samples;Min_cycle;Max_cycle;Signal;HPM_P1;HPM_P2
2022/06/04 00:00:56;;;;;;;15.73;11.05;;;;;;;14.79;100.00;96726.13;10368497;28;20193;-57
2022/06/04 00:05:57;;;;;;;14.40;10.30;;;;;;;14.72;100.00;96738.44;10367902;28;20233;-55
2022/06/04 00:16:18;;;;;;;15.25;13.75;;;;;;;14.63;100.00;96735.88;10367900;28;20185;-58
2022/06/04 00:21:19;;;;;;;17.98;16.10;;;;;;;14.58;100.00;96735.56;10367756;28;20217;-57
2022/06/04 00:26:19;;;;;;;22.20;18.40;;;;;;;14.50;100.00;96730.41;10367509;28;20193;-54
2022/06/04 00:31:20;;;;;;;17.95;16.23;;;;;;;14.64;100.00;96736.72;10367562;28;20193;-54
2022/06/04 00:36:20;;;;;;;14.98;13.40;;;;;;;14.74;100.00;96717.97;10366927;28;20551;-57
2022/06/04 00:41:29;;;;;;;14.32;12.77;;;;;;;14.85;100.00;96722.78;10366760;28;20229;-57
2022/06/04 00:46:42;;;;;;;14.93;12.70;;;;;;;14.89;100.00;96724.03;10367118;28;20254;-57
2022/06/04 00:51:44;;;;;;;13.38;12.05;;;;;;;14.79;100.00;96729.63;10366888;28;20213;-56
2022/06/04 00:57:00;;;;;;;18.08;15.57;;;;;;;14.63;100.00;96719.25;10366911;28;20243;-56
2022/06/04 01:02:21;;;;;;;15.88;14.25;;;;;;;14.76;100.00;96726.50;10365435;28;20228;-53
2022/06/04 01:07:32;;;;;;;14.38;12.88;;;;;;;14.78;100.00;96730.59;10365269;28;20335;-55
2022/06/04 01:12:44;;;;;;;22.33;15.40;;;;;;;14.63;100.00;96730.59;10366140;28;20700;-54
2022/06/04 01:18:22;;;;;;;17.42;14.85;;;;;;;14.71;100.00;96731.50;10366431;28;20594;-54
2022/06/04 01:23:53;;;;;;;15.73;14.10;;;;;;;14.81;100.00;96724.16;10372394;28;20594;-55
2022/06/04 01:29:01;;;;;;;17.83;15.82;;;;;;;14.67;100.00;96725.81;10374151;28;20197;-55
2022/06/04 01:34:05;;;;;;;15.55;13.35;;;;;;;14.79;100.00;96724.34;10373490;28;20216;-57
2022/06/04 01:39:11;;;;;;;15.20;13.60;;;;;;;14.75;100.00;96722.25;10372748;28;20196;-56
2022/06/04 01:44:16;;;;;;;18.67;15.82;;;;;;;14.61;100.00;96737.88;10372281;28;20244;-53
2022/06/04 01:49:39;;;;;;;15.38;12.38;;;;;;;14.67;100.00;96746.91;10372232;28;20672;-56
2022/06/04 01:54:51;;;;;;;15.10;12.68;;;;;;;14.74;100.00;96726.69;10371843;28;20220;-52
2022/06/04 01:59:54;;;;;;;13.90;12.55;;;;;;;14.72;100.00;96717.34;10373150;28;20208;-51
2022/06/04 02:04:58;;;;;;;13.07;11.82;;;;;;;14.75;100.00;96712.50;10371436;28;20213;-56
2022/06/04 02:10:14;;;;;;;15.80;13.27;;;;;;;14.75;100.00;96722.25;10372897;28;20181;-53
2022/06/04 02:15:21;;;;;;;15.63;12.68;;;;;;;14.71;100.00;96716.50;10372228;28;20229;-54
2022/06/04 02:20:21;;;;;;;15.63;13.07;;;;;;;14.67;100.00;96709.13;10373224;28;20283;-57
2022/06/04 02:25:22;;;;;;;13.45;12.25;;;;;;;14.66;100.00;96710.16;10372717;28;20647;-58
2022/06/04 02:30:42;;;;;;;14.10;12.73;;;;;;;14.76;100.00;96719.44;10372059;28;20551;-57
2022/06/04 02:35:52;;;;;;;15.55;13.50;;;;;;;14.64;100.00;96694.53;10370413;28;20209;-56
2022/06/04 02:41:02;;;;;;;17.63;12.68;;;;;;;14.73;100.00;96685.50;10371729;28;20239;-57
2022/06/04 02:46:14;;;;;;;16.65;15.10;;;;;;;14.52;100.00;96683.56;10369780;28;20236;-58
2022/06/04 02:51:19;;;;;;;16.27;14.63;;;;;;;14.55;100.00;96685.03;10369639;28;20196;-55
2022/06/04 02:56:26;;;;;;;16.25;14.65;;;;;;;14.47;100.00;96685.91;10370759;28;20220;-56
2022/06/04 03:01:28;;;;;;;15.05;13.45;;;;;;;14.58;100.00;96682.03;10369380;28;20357;-52
2022/06/04 03:06:33;;;;;;;14.88;13.52;;;;;;;14.47;100.00;96683.28;10368840;28;20284;-53
2022/06/04 03:11:48;;;;;;;14.82;13.43;;;;;;;14.52;100.00;96696.75;10370008;28;20229;-52
2022/06/04 03:16:49;;;;;;;13.77;12.38;;;;;;;14.52;100.00;96701.22;10369785;28;20192;-51
2022/06/04 03:21:49;;;;;;;15.80;14.30;;;;;;;14.39;100.00;96699.19;10369953;28;20221;-54
2022/06/04 03:26:49;;;;;;;16.20;14.50;;;;;;;14.43;100.00;96698.66;10369658;28;20193;-51
2022/06/04 03:31:53;;;;;;;15.63;14.02;;;;;;;14.45;100.00;96683.47;10369576;28;20695;-55
2022/06/04 03:36:53;;;;;;;17.40;15.70;;;;;;;14.40;100.00;96691.13;10368779;28;20256;-56
2022/06/04 03:41:53;;;;;;;18.10;16.23;;;;;;;14.37;100.00;96693.31;10369284;28;20225;-58
2022/06/04 03:46:54;;;;;;;17.40;15.65;;;;;;;14.45;100.00;96687.94;10369013;28;20288;-55
2022/06/04 03:51:54;;;;;;;17.95;16.05;;;;;;;14.53;100.00;96687.84;10368551;28;20220;-57
2022/06/04 03:57:37;;;;;;;14.68;13.27;;;;;;;14.72;100.00;96683.06;10368032;28;20227;-56
2022/06/04 04:02:15;;;;;;;14.23;12.98;;;;;;;14.82;100.00;96685.41;10367726;28;20232;-56
2022/06/04 04:07:15;;;;;;;17.20;13.73;;;;;;;14.77;100.00;96676.22;10367798;28;20197;-56
2022/06/04 04:12:16;;;;;;;14.80;13.23;;;;;;;14.84;100.00;96673.69;10367830;28;20248;-55
2022/06/04 04:17:16;;;;;;;14.50;13.00;;;;;;;14.90;100.00;96685.28;10368250;28;20317;-55
2022/06/04 04:22:18;;;;;;;15.38;13.90;;;;;;;14.83;100.00;96687.06;10368036;28;20782;-58
2022/06/04 04:27:18;;;;;;;13.95;12.55;;;;;;;14.91;100.00;96686.94;10367959;28;20231;-57
2022/06/04 04:32:19;;;;;;;14.55;13.15;;;;;;;15.00;100.00;96688.47;10367509;28;20267;-57
2022/06/04 04:37:19;;;;;;;13.32;12.13;;;;;;;15.01;100.00;96681.34;10367251;28;20197;-58
2022/06/04 04:42:19;;;;;;;14.00;12.50;;;;;;;15.30;100.00;96681.28;10367195;28;20232;-57
2022/06/04 04:47:20;;;;;;;13.60;12.20;;;;;;;15.46;100.00;96674.13;10367297;28;20190;-58
2022/06/04 04:52:20;;;;;;;13.00;11.73;;;;;;;15.39;100.00;96675.88;10366901;28;20205;-54
2022/06/04 04:57:20;;;;;;;12.95;11.73;;;;;;;15.39;100.00;96668.81;10366397;28;20288;-58
2022/06/04 05:02:21;;;;;;;13.43;12.32;;;;;;;15.29;100.00;96669.09;10352580;23;20620;-61
2022/06/04 05:07:21;;;;;;;14.25;13.00;;;;;;;15.52;100.00;96665.47;10325827;28;20624;-61
2022/06/04 05:12:21;;;;;;;12.63;11.40;;;;;;;16.01;100.00;96674.44;10326251;28;20202;-59
2022/06/04 05:17:22;;;;;;;11.93;9.82;;;;;;;16.29;100.00;96677.06;10325990;28;20284;-57
2022/06/04 05:22:22;;;;;;;10.93;9.60;;;;;;;16.14;100.00;96676.34;10325804;28;20226;-61
2022/06/04 05:27:23;;;;;;;10.15;8.85;;;;;;;16.45;100.00;96688.34;10326041;28;20194;-59
2022/06/04 05:32:24;;;;;;;10.48;9.48;;;;;;;17.02;100.00;96694.38;10325904;28;20202;-62
2022/06/04 05:37:24;;;;;;;11.95;9.73;;;;;;;17.34;100.00;96679.63;10326454;28;20201;-59
2022/06/04 05:42:24;;;;;;;9.45;8.65;;;;;;;17.52;100.00;96691.44;10325461;28;20329;-61
2022/06/04 05:47:25;;;;;;;8.30;7.53;;;;;;;18.01;100.00;96703.59;10325745;28;20190;-62
2022/06/04 05:52:26;;;;;;;9.23;8.30;;;;;;;18.26;100.00;96710.91;10323957;28;20209;-62
2022/06/04 05:57:26;;;;;;;9.68;7.93;;;;;;;18.23;100.00;96716.63;10325346;28;20202;-60
2022/06/04 06:02:26;;;;;;;8.48;6.70;;;;;;;18.36;100.00;96721.91;10325036;28;20664;-58
2022/06/04 06:07:27;;;;;;;6.80;6.20;;;;;;;18.76;100.00;96728.97;10326627;28;20548;-61
2022/06/04 06:12:27;;;;;;;7.20;6.50;;;;;;;18.89;100.00;96729.78;10332185;28;20729;-58
2022/06/04 06:17:27;;;;;;;10.23;6.57;;;;;;;19.05;100.00;96723.22;10332318;28;20578;-62
2022/06/04 06:22:28;;;;;;;7.03;6.32;;;;;;;19.11;100.00;96724.22;10331989;28;20577;-60
2022/06/04 06:27:28;;;;;;;8.60;7.80;;;;;;;18.82;100.00;96736.94;10331670;28;20582;-61
2022/06/04 06:32:28;;;;;;;10.60;8.35;;;;;;;18.65;100.00;96727.78;10331450;28;20570;-59
2022/06/04 06:37:29;;;;;;;6.53;5.82;;;;;;;18.93;100.00;96724.91;10330892;28;20619;-57
2022/06/04 06:42:29;;;;;;;7.00;6.40;;;;;;;19.48;100.00;96727.13;10331262;28;20615;-60
2022/06/04 06:47:37;;;;;;;6.80;5.97;;;;;;;20.62;100.00;96742.25;10329644;28;20537;-60
2022/06/04 06:52:38;;;;;;;9.13;6.13;;;;;;;20.79;100.00;96743.31;10330934;28;20210;-57
2022/06/04 06:57:38;;;;;;;7.30;6.07;;;;;;;20.79;100.00;96746.00;10323223;28;20194;-62
2022/06/04 07:02:38;;;;;;;7.55;6.82;;;;;;;20.12;100.00;96767.84;10328168;28;20245;-61
2022/06/04 07:07:40;;;;;;;7.95;6.43;;;;;;;20.14;100.00;96767.63;10329016;28;20190;-60
2022/06/04 07:12:42;;;;;;;7.63;5.85;;;;;;;19.90;100.00;96774.53;10328711;28;20206;-59
2022/06/04 07:17:43;;;;;;;6.28;5.78;;;;;;;19.69;100.00;96770.34;10317445;28;20194;-59
2022/06/04 07:22:43;;;;;;;7.97;7.28;;;;;;;19.81;100.00;96773.16;10309292;28;20692;-58
2022/06/04 07:27:43;;;;;;;7.40;6.80;;;;;;;19.92;100.00;96775.13;10309119;28;20206;-61
2022/06/04 07:32:44;;;;;;;7.75;7.13;;;;;;;19.59;100.00;96782.25;10315320;28;20329;-61
2022/06/04 07:37:44;;;;;;;8.60;7.72;;;;;;;19.73;100.00;96780.31;10319932;28;20197;-63
2022/06/04 07:42:45;;;;;;;7.93;7.22;;;;;;;18.99;100.00;96790.44;10302014;28;20309;-61
2022/06/04 07:47:46;;;;;;;9.18;7.07;;;;;;;19.35;100.00;96798.91;10319515;28;20214;-63
2022/06/04 07:52:46;;;;;;;7.53;6.15;;;;;;;19.77;100.00;96799.38;10299702;28;20297;-62
2022/06/04 07:57:48;;;;;;;7.30;6.60;;;;;;;19.73;100.00;96814.06;10287848;28;20198;-59
2022/06/04 08:02:48;;;;;;;8.57;6.95;;;;;;;19.76;100.00;96811.81;10315214;28;20234;-60
2022/06/04 08:07:49;;;;;;;7.82;7.07;;;;;;;19.57;100.00;96800.25;10323664;28;20540;-62
2022/06/04 08:12:51;;;;;;;11.05;6.28;;;;;;;19.99;100.00;96799.84;10324412;28;20683;-56
2022/06/04 08:17:51;;;;;;;5.22;4.82;;;;;;;20.40;100.00;96784.41;10324135;28;20695;-61
2022/06/04 08:22:52;;;;;;;6.65;5.18;;;;;;;19.85;100.00;96808.94;10292795;28;20238;-61
2022/06/04 08:27:52;;;;;;;5.28;4.75;;;;;;;20.29;100.00;96800.06;10284029;28;20206;-60
2022/06/04 08:32:53;;;;;;;4.97;3.75;;;;;;;20.59;100.00;96802.06;10285021;28;20214;-59
2022/06/04 08:37:53;;;;;;;5.07;3.53;;;;;;;21.96;88.69;96757.50;10322848;28;20218;-60
2022/06/04 08:43:04;;;;;;;4.93;3.35;;;;;;;21.91;95.35;96803.53;10323661;28;20399;-57
2022/06/04 08:48:12;;;;;;;3.40;3.10;;;;;;;23.20;83.63;96769.22;10323734;28;20563;-57
2022/06/04 08:53:19;;;;;;;3.72;3.35;;;;;;;22.80;86.12;96792.09;10305875;28;20206;-61
2022/06/04 08:58:38;;;;;;;4.60;2.83;;;;;;;24.14;78.22;96745.81;10306916;28;20197;-62
2022/06/04 09:03:58;;;;;;;3.40;3.10;;;;;;;23.35;81.51;96807.97;10323066;28;20608;-60
2022/06/04 09:09:10;;;;;;;5.63;3.10;;;;;;;24.22;75.89;96751.56;10307235;28;20221;-63
2022/06/04 09:14:13;;;;;;;3.85;3.22;;;;;;;23.80;77.54;96792.03;10324694;28;20630;-63
2022/06/04 09:19:20;;;;;;;3.80;3.50;;;;;;;22.60;82.89;96834.34;10324752;28;20248;-62
2022/06/04 09:24:20;;;;;;;5.38;4.25;;;;;;;22.26;84.73;96848.16;10307146;28;20221;-61
2022/06/04 09:29:35;;;;;;;3.95;3.55;;;;;;;22.13;84.05;96844.88;10324924;28;20752;-62
2022/06/04 09:34:38;;;;;;;5.05;4.55;;;;;;;22.29;82.92;96841.56;10306834;28;20731;-62
2022/06/04 09:39:44;;;;;;;5.07;4.10;;;;;;;21.58;90.89;96885.78;10305850;28;20272;-62
2022/06/04 09:44:57;;;;;;;5.25;4.45;;;;;;;21.36;89.01;96870.19;10330908;28;20221;-63
2022/06/04 09:50:03;;;;;;;5.25;4.75;;;;;;;21.83;89.32;96853.69;10331626;28;20712;-63
2022/06/04 09:55:17;;;;;;;4.53;4.07;;;;;;;21.28;89.42;96852.66;10313002;28;20213;-62
2022/06/04 10:00:19;;;;;;;4.88;4.00;;;;;;;21.52;90.04;96864.31;10332134;28;20246;-63
2022/06/04 10:05:22;;;;;;;5.90;4.07;;;;;;;22.00;87.93;96853.88;10333053;28;20214;-63
2022/06/04 10:10:39;;;;;;;6.00;2.83;;;;;;;22.24;80.32;96807.56;10332449;28;20490;-63
2022/06/04 10:15:46;;;;;;;2.63;2.40;;;;;;;23.05;76.65;96801.72;10315270;28;20189;-63
2022/06/04 10:20:54;;;;;;;3.83;3.33;;;;;;;22.92;79.62;96844.72;10314446;28;20758;-63
2022/06/04 10:26:07;;;;;;;4.10;3.50;;;;;;;22.43;80.37;96840.38;10332227;28;20222;-63
2022/06/04 10:31:20;;;;;;;3.50;3.20;;;;;;;23.31;77.82;96821.03;10314416;28;20218;-63
2022/06/04 10:36:39;;;;;;;3.70;2.90;;;;;;;23.69;74.35;96791.03;10314350;28;20244;-61
2022/06/04 10:41:51;;;;;;;5.20;3.03;;;;;;;23.98;72.41;96785.69;10331091;28;20213;-64
2022/06/04 10:47:04;;;;;;;3.08;2.65;;;;;;;22.83;76.46;96840.75;10313190;28;20202;-63
2022/06/04 10:52:31;;;;;;;2.25;2.10;;;;;;;23.32;73.50;96820.78;10315278;28;20593;-64
2022/06/04 10:57:36;;;;;;;3.10;2.38;;;;;;;22.68;75.99;96836.69;10313146;28;20196;-63
2022/06/04 11:02:43;;;;;;;3.13;2.45;;;;;;;23.90;70.40;96787.94;10334730;23;20611;-55
2022/06/04 11:07:55;;;;;;;2.70;2.50;;;;;;;23.40;71.65;96811.59;10329032;28;20191;-56
2022/06/04 11:13:09;;;;;;;3.15;2.30;;;;;;;23.35;70.12;96795.41;10329976;28;20283;-55
2022/06/04 11:18:17;;;;;;;2.60;2.00;;;;;;;23.62;70.64;96803.72;10328737;28;20285;-59
2022/06/04 11:23:26;;;;;;;3.67;2.28;;;;;;;23.07;73.52;96826.34;10329050;28;20715;-54
2022/06/04 11:28:27;;;;;;;2.72;2.53;;;;;;;23.73;68.71;96783.31;10329635;28;20573;-60
2022/06/04 11:33:47;;;;;;;2.80;2.42;;;;;;;24.13;70.28;96811.09;10328996;28;20229;-58
2022/06/04 11:38:55;;;;;;;2.90;2.60;;;;;;;23.98;68.82;96785.69;10328011;28;20190;-59
2022/06/04 11:44:24;;;;;;;4.38;2.50;;;;;;;23.59;70.60;96795.38;10328392;28;20221;-59
2022/06/04 11:49:37;;;;;;;2.80;2.60;;;;;;;23.88;68.21;96774.81;10327403;28;20194;-59
2022/06/04 11:54:57;;;;;;;2.80;2.60;;;;;;;24.20;66.20;96756.34;10326883;28;20564;-59
2022/06/04 12:00:20;;;;;;;2.85;2.65;;;;;;;24.37;65.84;96760.91;10326481;28;20242;-58
2022/06/04 12:05:53;;;;;;;4.65;3.45;;;;;;;23.93;68.43;96801.66;10326444;28;20269;-59
2022/06/04 12:11:10;;;;;;;4.22;3.47;;;;;;;23.74;71.80;96843.81;10290833;28;20655;-54
2022/06/04 12:16:24;;;;;;;5.03;3.67;;;;;;;24.37;68.58;96796.53;10326504;28;20225;-56
2022/06/04 12:27:20;;;;;;;3.88;3.58;;;;;;;25.58;64.69;96762.03;10314797;28;20202;-55
2022/06/04 12:32:34;;;;;;;4.28;3.85;;;;;;;24.96;65.61;96765.81;10286696;28;20210;-56
2022/06/04 12:37:38;;;;;;;7.43;4.82;;;;;;;25.33;62.59;96721.53;10285270;28;20951;-54
2022/06/04 12:42:40;;;;;;;8.43;3.97;;;;;;;25.99;58.88;96676.59;10284860;28;20235;-58
2022/06/04 12:47:42;;;;;;;4.45;4.15;;;;;;;25.34;59.69;96696.34;10286557;28;20280;-54
2022/06/04 12:52:46;;;;;;;4.93;4.53;;;;;;;25.86;61.49;96725.28;10285986;28;20206;-55
2022/06/04 12:58:23;;;;;;;7.25;5.40;;;;;;;24.38;65.04;96775.94;10285861;28;20183;-56
2022/06/04 13:03:35;;;;;;;6.57;5.97;;;;;;;24.95;62.97;96745.44;10284373;28;20238;-57
2022/06/04 13:08:42;;;;;;;6.03;4.90;;;;;;;25.15;62.31;96744.09;10286334;28;20195;-57
2022/06/04 13:14:01;;;;;;;5.13;4.53;;;;;;;25.05;61.52;96737.53;10284286;28;20626;-59
2022/06/04 13:19:07;;;;;;;6.57;5.97;;;;;;;25.15;60.57;96731.47;10290177;28;20194;-62
2022/06/04 13:24:16;;;;;;;6.35;5.22;;;;;;;24.60;65.48;96821.56;10293384;28;20254;-61
2022/06/04 13:29:27;;;;;;;6.75;5.47;;;;;;;24.34;67.44;96847.88;10292813;28;20194;-62
2022/06/04 13:34:31;;;;;;;8.55;6.10;;;;;;;24.24;66.67;96809.41;10293135;28;20201;-58
2022/06/04 13:39:33;;;;;;;8.65;7.72;;;;;;;23.12;71.23;96850.56;10293284;28;20205;-60
2022/06/04 13:44:54;;;;;;;7.57;6.65;;;;;;;23.27;71.05;96854.59;10291546;28;20868;-60
2022/06/04 13:50:12;;;;;;;8.75;7.45;;;;;;;23.36;69.83;96823.78;10291509;28;20559;-61
2022/06/04 13:55:18;;;;;;;8.48;7.07;;;;;;;23.02;72.33;96863.66;10291023;28;20225;-60
2022/06/04 14:00:30;;;;;;;10.52;8.18;;;;;;;22.75;72.16;96850.72;10291997;28;20281;-58
2022/06/04 14:05:47;;;;;;;8.13;6.82;;;;;;;22.84;70.32;96837.84;10290859;28;20222;-59
2022/06/04 14:11:02;;;;;;;7.78;7.00;;;;;;;22.97;71.03;96861.69;10291095;28;20229;-57
2022/06/04 14:16:25;;;;;;;13.48;7.70;;;;;;;22.77;72.21;96878.03;10291740;28;20222;-58
2022/06/04 14:21:54;;;;;;;7.95;7.15;;;;;;;22.30;71.46;96853.88;10291688;28;20253;-58
2022/06/04 14:27:20;;;;;;;11.57;7.75;;;;;;;21.60;74.38;96887.19;10291271;28;20203;-57
2022/06/04 14:32:42;;;;;;;9.20;7.00;;;;;;;21.15;74.53;96884.78;10289948;28;20285;-58
2022/06/04 14:37:46;;;;;;;12.10;7.35;;;;;;;21.59;74.65;96906.06;10291260;28;20194;-57
2022/06/04 14:43:12;;;;;;;7.95;7.10;;;;;;;21.52;74.51;96890.97;10290741;28;20226;-57
2022/06/04 14:48:39;;;;;;;7.93;6.78;;;;;;;20.90;76.32;96901.56;10288801;28;20217;-55
2022/06/04 14:53:40;;;;;;;11.25;8.20;;;;;;;20.52;80.40;96920.25;10290562;28;20214;-59
2022/06/04 14:58:49;;;;;;;11.07;8.32;;;;;;;20.52;79.74;96914.94;10289031;28;20202;-57
2022/06/04 15:04:00;;;;;;;9.95;8.95;;;;;;;21.46;78.36;96893.69;10290013;28;20250;-60
2022/06/04 15:09:15;;;;;;;9.63;8.63;;;;;;;21.74;79.61;96911.84;10289286;28;20199;-60
2022/06/04 15:14:22;;;;;;;10.77;8.90;;;;;;;22.39;73.98;96855.22;10289664;28;20225;-60
2022/06/04 15:19:37;;;;;;;10.27;9.23;;;;;;;22.44;72.36;96874.00;10290109;28;20199;-60
2022/06/04 15:24:48;;;;;;;10.52;7.20;;;;;;;22.61;70.60;96863.47;10289289;28;20586;-60
2022/06/04 15:35:26;;;;;;;8.90;8.10;;;;;;;22.00;73.50;96881.38;10288895;28;20191;-61
2022/06/04 15:40:27;;;;;;;8.50;7.70;;;;;;;22.23;71.58;96832.59;10318005;28;20210;-60
2022/06/04 15:45:34;;;;;;;8.65;6.75;;;;;;;22.70;70.79;96831.91;10328943;28;20217;-60
2022/06/04 15:56:15;;;;;;;8.00;7.05;;;;;;;21.62;73.42;96882.44;10328134;28;20193;-60
2022/06/04 16:01:32;;;;;;;11.10;7.18;;;;;;;21.87;71.03;96844.22;10327258;28;20300;-61
2022/06/04 16:06:35;;;;;;;9.90;7.72;;;;;;;22.22;70.72;96833.66;10328003;28;20311;-58
2022/06/04 16:11:45;;;;;;;8.93;7.35;;;;;;;22.20;70.92;96833.06;10328318;28;20222;-57
2022/06/04 16:17:00;;;;;;;7.70;6.90;;;;;;;22.22;72.55;96863.03;10327625;28;20200;-60
2022/06/04 16:22:19;;;;;;;8.75;7.88;;;;;;;22.03;71.49;96840.91;10327833;28;20232;-59
2022/06/04 16:27:28;;;;;;;10.25;8.55;;;;;;;22.31;70.93;96846.72;10327643;28;20208;-57
2022/06/04 16:32:28;;;;;;;9.02;7.00;;;;;;;22.72;69.48;96829.81;10327675;28;20293;-55
2022/06/04 16:37:34;;;;;;;8.32;6.93;;;;;;;22.35;71.84;96869.25;10325931;28;20204;-59
2022/06/04 16:42:49;;;;;;;11.05;7.50;;;;;;;22.35;72.95;96898.59;10326051;28;20230;-58
2022/06/04 16:47:58;;;;;;;11.25;10.15;;;;;;;21.53;74.86;96916.59;10326969;28;20201;-59
2022/06/04 16:53:01;;;;;;;10.20;9.18;;;;;;;22.12;74.25;96910.78;10326226;28;20885;-58
2022/06/04 16:58:02;;;;;;;12.93;8.90;;;;;;;22.07;74.07;96907.97;10326426;28;20190;-59
2022/06/04 17:03:14;;;;;;;10.98;9.88;;;;;;;21.17;76.63;96925.31;10326364;28;20237;-57
2022/06/04 17:08:33;;;;;;;11.68;10.57;;;;;;;20.64;77.87;96937.16;10355172;23;20265;-58
2022/06/04 17:13:41;;;;;;;11.73;10.60;;;;;;;20.52;79.08;96945.03;10326510;28;20189;-56
2022/06/04 17:19:09;;;;;;;9.98;8.50;;;;;;;20.77;79.48;96938.97;10324421;28;20218;-56
2022/06/04 17:24:38;;;;;;;15.20;9.88;;;;;;;20.49;79.41;96940.94;10325006;28;20214;-58
2022/06/04 17:30:05;;;;;;;11.68;9.55;;;;;;;20.13;79.28;96942.34;10325898;28;20225;-54
2022/06/04 17:35:14;;;;;;;10.95;8.88;;;;;;;19.73;82.19;96971.72;10324662;28;20217;-60
2022/06/04 17:40:28;;;;;;;10.98;9.85;;;;;;;19.93;81.05;96958.38;10326485;28;20182;-60
2022/06/04 17:45:29;;;;;;;12.50;9.60;;;;;;;19.74;82.08;96964.53;10324327;28;20214;-60
2022/06/04 17:50:29;;;;;;;10.13;9.20;;;;;;;19.70;82.07;96963.34;10325842;28;20660;-57
2022/06/04 17:55:30;;;;;;;11.18;9.90;;;;;;;19.53;82.75;96969.09;10324139;28;20214;-60
2022/06/04 18:00:31;;;;;;;14.05;10.00;;;;;;;19.51;82.86;96984.44;10325098;28;20249;-60
2022/06/04 18:05:33;;;;;;;11.48;10.32;;;;;;;19.19;85.63;96991.41;10330860;28;20248;-60
2022/06/04 18:10:34;;;;;;;9.90;8.75;;;;;;;19.27;84.36;96971.81;10332252;28;20194;-60
2022/06/04 18:15:34;;;;;;;10.10;9.10;;;;;;;19.07;86.15;96993.84;10332537;28;20209;-58
2022/06/04 18:20:36;;;;;;;13.77;11.70;;;;;;;19.11;86.19;96997.75;10332012;28;20209;-60
2022/06/04 18:25:39;;;;;;;11.35;10.13;;;;;;;18.78;87.64;96998.47;10331937;28;20306;-60
2022/06/04 18:30:41;;;;;;;11.38;10.30;;;;;;;18.57;89.25;97006.59;10331969;28;20665;-59
2022/06/04 18:35:42;;;;;;;13.02;11.02;;;;;;;18.26;91.14;97015.88;10331128;28;20577;-56
2022/06/04 18:40:44;;;;;;;15.13;13.70;;;;;;;17.86;93.66;97010.38;10331800;28;20862;-58
2022/06/04 18:56:22;;;;;;;17.50;15.70;;;;;;;15.16;100.00;97027.88;10330414;28;20205;-58
2022/06/04 19:01:23;;;;;;;16.75;15.05;;;;;;;15.49;100.00;97038.13;10329981;28;20194;-57
2022/06/04 19:06:23;;;;;;;18.15;16.35;;;;;;;15.03;100.00;97043.47;10330164;28;20832;-58
2022/06/04 19:16:43;;;;;;;20.27;17.60;;;;;;;14.60;100.00;97055.25;10329188;28;20799;-56
2022/06/04 19:27:21;;;;;;;27.80;24.88;;;;;;;14.12;100.00;97067.66;10329319;28;20716;-56
2022/06/04 19:32:22;;;;;;;19.73;17.67;;;;;;;14.02;100.00;97074.91;10329309;28;20190;-54
2022/06/04 19:37:22;;;;;;;20.38;18.40;;;;;;;13.83;100.00;97087.47;10329301;28;20595;-54
2022/06/04 19:42:23;;;;;;;20.65;18.45;;;;;;;13.99;100.00;97086.59;10328525;28;20569;-56
2022/06/04 19:47:24;;;;;;;20.77;18.65;;;;;;;13.64;100.00;97082.56;10329046;28;20260;-59
2022/06/04 19:52:27;;;;;;;22.23;19.73;;;;;;;13.34;100.00;97096.25;10328270;28;20201;-56
2022/06/04 19:57:28;;;;;;;20.25;17.90;;;;;;;13.49;100.00;97096.41;10328087;28;20209;-57
2022/06/04 20:02:28;;;;;;;19.60;17.27;;;;;;;13.45;100.00;97089.00;10328173;28;20232;-56
2022/06/04 20:07:31;;;;;;;20.85;17.83;;;;;;;13.27;100.00;97089.13;10327420;28;20269;-55
2022/06/04 20:12:31;;;;;;;19.67;16.63;;;;;;;13.24;100.00;97100.81;10328196;28;20194;-55
2022/06/04 20:17:32;;;;;;;25.98;20.08;;;;;;;13.20;100.00;97112.66;10327403;28;20589;-50
2022/06/04 20:22:32;;;;;;;27.75;20.40;;;;;;;13.23;100.00;97111.50;10327519;28;20324;-55
2022/06/04 20:27:32;;;;;;;23.55;21.23;;;;;;;13.08;100.00;97109.50;10326135;28;20217;-56
2022/06/04 20:32:33;;;;;;;21.27;18.85;;;;;;;12.99;100.00;97102.59;10327012;28;20198;-52
2022/06/04 20:37:33;;;;;;;25.88;20.92;;;;;;;12.79;100.00;97105.50;10327217;28;20218;-51
2022/06/04 20:42:34;;;;;;;23.80;17.73;;;;;;;12.92;100.00;97106.84;10326646;28;20214;-53
2022/06/04 20:47:34;;;;;;;21.20;18.35;;;;;;;12.87;100.00;97096.00;10327034;28;20594;-52
2022/06/04 20:52:35;;;;;;;21.80;19.70;;;;;;;12.73;100.00;97106.16;10326631;28;20255;-56
2022/06/04 20:57:35;;;;;;;21.35;18.75;;;;;;;12.69;100.00;97107.44;10326050;28;20209;-50
2022/06/04 21:02:36;;;;;;;21.80;19.70;;;;;;;12.62;100.00;97109.91;10326412;28;20222;-49
2022/06/04 21:07:36;;;;;;;21.83;19.63;;;;;;;12.66;100.00;97119.13;10325887;28;20292;-55
2022/06/04 21:12:36;;;;;;;21.98;19.70;;;;;;;12.53;100.00;97108.22;10326598;28;20182;-57
2022/06/04 21:17:37;;;;;;;24.77;20.45;;;;;;;12.43;100.00;97105.72;10326391;28;20268;-52
2022/06/04 21:22:37;;;;;;;24.00;20.33;;;;;;;12.40;100.00;97102.59;10326404;28;20356;-54
2022/06/04 21:27:38;;;;;;;20.90;18.85;;;;;;;12.32;100.00;97106.00;10325865;28;20280;-49
2022/06/04 21:32:38;;;;;;;23.88;21.38;;;;;;;12.18;100.00;97103.97;10326083;28;20190;-51
2022/06/04 21:37:41;;;;;;;25.27;21.67;;;;;;;12.06;100.00;97111.28;10327559;28;20236;-50
2022/06/04 21:42:44;;;;;;;24.25;20.17;;;;;;;12.07;100.00;97107.69;10333773;28;20221;-52
2022/06/04 21:47:46;;;;;;;25.38;21.13;;;;;;;12.02;100.00;97116.03;10333478;28;20225;-52
2022/06/04 21:52:47;;;;;;;21.60;19.25;;;;;;;11.94;100.00;97115.97;10333411;28;20194;-52
2022/06/04 21:57:47;;;;;;;22.35;20.15;;;;;;;11.92;100.00;97123.16;10332672;28;20213;-51
2022/06/04 22:02:49;;;;;;;21.90;19.60;;;;;;;11.81;100.00;97120.78;10332885;28;20244;-53
2022/06/04 22:07:50;;;;;;;21.48;18.52;;;;;;;11.77;100.00;97109.78;10332079;28;20242;-53
2022/06/04 22:12:51;;;;;;;23.25;20.35;;;;;;;11.75;100.00;97123.06;10332607;28;20310;-50
2022/06/04 22:17:52;;;;;;;23.83;21.40;;;;;;;11.61;100.00;97118.38;10332060;28;20372;-50
2022/06/04 22:22:53;;;;;;;24.57;22.03;;;;;;;11.58;100.00;97116.06;10332060;28;20656;-51
2022/06/04 22:27:53;;;;;;;22.13;19.45;;;;;;;11.60;100.00;97108.84;10331761;28;20210;-50
2022/06/04 22:32:53;;;;;;;23.90;21.33;;;;;;;11.56;100.00;97103.09;10331669;28;20205;-51
2022/06/04 22:37:54;;;;;;;22.73;20.08;;;;;;;11.49;100.00;97098.59;10331270;28;20304;-52
2022/06/04 22:42:54;;;;;;;24.17;21.37;;;;;;;11.47;100.00;97113.66;10331255;28;20229;-52
2022/06/04 22:47:55;;;;;;;25.40;22.03;;;;;;;11.46;100.00;97110.22;10330692;28;20587;-51
2022/06/04 22:52:55;;;;;;;23.17;20.77;;;;;;;11.36;100.00;97110.31;10330166;28;20550;-53
2022/06/04 22:57:55;;;;;;;20.57;18.40;;;;;;;11.30;100.00;97108.28;10330208;28;20263;-50
2022/06/04 23:02:56;;;;;;;22.63;18.23;;;;;;;11.26;100.00;97098.25;10330512;28;20221;-50
2022/06/04 23:07:56;;;;;;;24.23;21.40;;;;;;;11.13;100.00;97093.38;10330080;28;20251;-55
2022/06/04 23:23:36;;;;;;;27.23;20.63;;;;;;;11.04;100.00;97085.44;10329776;28;20234;-52
2022/06/04 23:28:39;;;;;;;23.10;20.77;;;;;;;11.00;100.00;97091.16;10329214;28;20588;-51
2022/06/04 23:33:42;;;;;;;24.27;19.77;;;;;;;10.93;100.00;97079.59;10329281;28;20196;-52
2022/06/04 23:38:45;;;;;;;22.70;20.50;;;;;;;10.85;100.00;97078.53;10329033;28;20222;-52
2022/06/04 23:43:46;;;;;;;20.67;18.37;;;;;;;10.82;100.00;97084.09;10328762;28;20591;-52
2022/06/04 23:48:46;;;;;;;23.90;21.40;;;;;;;10.78;100.00;97072.28;10328829;28;20224;-56
2022/06/04 23:53:47;;;;;;;23.47;20.97;;;;;;;10.73;100.00;97076.28;10328332;28;20190;-51
2022/06/04 23:58:48;;;;;;;25.23;21.67;;;;;;;10.68;100.00;97072.31;10327908;28;20288;-54
